sensor_id;sensor_type;location;lat;lon;timestamp;P1;durP1;ratioP1;P2;durP2;ratioP2
12554;SDS011;6343;50.868;4.700;2023-12-14T00:02:14;38.97;;;19.67;;
12554;SDS011;6343;50.868;4.700;2023-12-14T00:04:40;40.53;;;19.73;;
12554;SDS011;6343;50.868;4.700;2023-12-14T00:07:06;35.77;;;17.97;;
12554;SDS011;6343;50.868;4.700;2023-12-14T00:09:32;33.27;;;18.20;;
12554;SDS011;6343;50.868;4.700;2023-12-14T00:11:58;34.10;;;17.63;;
12554;SDS011;6343;50.868;4.700;2023-12-14T00:14:24;38.17;;;19.40;;
12554;SDS011;6343;50.868;4.700;2023-12-14T00:16:50;44.83;;;20.27;;
12554;SDS011;6343;50.868;4.700;2023-12-14T00:19:17;42.67;;;19.77;;
12554;SDS011;6343;50.868;4.700;2023-12-14T00:21:44;38.10;;;20.37;;
12554;SDS011;6343;50.868;4.700;2023-12-14T00:24:10;40.73;;;20.17;;
12554;SDS011;6343;50.868;4.700;2023-12-14T00:26:36;41.80;;;21.60;;
12554;SDS011;6343;50.868;4.700;2023-12-14T00:29:02;37.80;;;19.90;;
12554;SDS011;6343;50.868;4.700;2023-12-14T00:31:29;40.00;;;20.17;;
12554;SDS011;6343;50.868;4.700;2023-12-14T00:33:55;41.03;;;21.47;;
12554;SDS011;6343;50.868;4.700;2023-12-14T00:36:21;35.97;;;20.30;;
12554;SDS011;6343;50.868;4.700;2023-12-14T00:38:47;42.63;;;20.17;;
12554;SDS011;6343;50.868;4.700;2023-12-14T00:41:13;36.87;;;19.67;;
12554;SDS011;6343;50.868;4.700;2023-12-14T00:43:39;47.13;;;22.17;;
12554;SDS011;6343;50.868;4.700;2023-12-14T00:46:05;40.57;;;20.90;;
12554;SDS011;6343;50.868;4.700;2023-12-14T00:48:31;37.40;;;19.83;;
12554;SDS011;6343;50.868;4.700;2023-12-14T00:50:57;39.87;;;19.70;;
12554;SDS011;6343;50.868;4.700;2023-12-14T00:53:23;37.97;;;20.17;;
12554;SDS011;6343;50.868;4.700;2023-12-14T00:55:49;39.13;;;20.30;;
12554;SDS011;6343;50.868;4.700;2023-12-14T00:58:15;42.60;;;20.77;;
12554;SDS011;6343;50.868;4.700;2023-12-14T01:00:42;40.43;;;20.87;;
12554;SDS011;6343;50.868;4.700;2023-12-14T01:03:08;42.53;;;21.17;;
12554;SDS011;6343;50.868;4.700;2023-12-14T01:05:34;46.17;;;21.10;;
12554;SDS011;6343;50.868;4.700;2023-12-14T01:08:00;47.30;;;20.97;;
12554;SDS011;6343;50.868;4.700;2023-12-14T01:10:26;40.33;;;20.07;;
12554;SDS011;6343;50.868;4.700;2023-12-14T01:12:52;39.03;;;20.73;;
12554;SDS011;6343;50.868;4.700;2023-12-14T01:15:18;47.33;;;20.17;;
12554;SDS011;6343;50.868;4.700;2023-12-14T01:17:44;46.80;;;21.43;;
12554;SDS011;6343;50.868;4.700;2023-12-14T01:20:10;43.50;;;22.60;;
12554;SDS011;6343;50.868;4.700;2023-12-14T01:22:36;44.17;;;20.77;;
12554;SDS011;6343;50.868;4.700;2023-12-14T01:25:02;40.13;;;20.47;;
12554;SDS011;6343;50.868;4.700;2023-12-14T01:27:29;46.40;;;19.97;;
12554;SDS011;6343;50.868;4.700;2023-12-14T01:29:55;46.53;;;21.17;;
12554;SDS011;6343;50.868;4.700;2023-12-14T01:32:21;42.57;;;20.80;;
12554;SDS011;6343;50.868;4.700;2023-12-14T01:34:47;47.10;;;21.33;;
12554;SDS011;6343;50.868;4.700;2023-12-14T01:37:13;45.90;;;20.33;;
12554;SDS011;6343;50.868;4.700;2023-12-14T01:39:39;40.77;;;19.53;;
12554;SDS011;6343;50.868;4.700;2023-12-14T01:42:05;41.30;;;19.77;;
12554;SDS011;6343;50.868;4.700;2023-12-14T01:44:32;41.83;;;20.07;;
12554;SDS011;6343;50.868;4.700;2023-12-14T01:46:58;39.40;;;18.70;;
12554;SDS011;6343;50.868;4.700;2023-12-14T01:49:24;38.40;;;17.97;;
12554;SDS011;6343;50.868;4.700;2023-12-14T01:51:50;48.63;;;21.47;;
12554;SDS011;6343;50.868;4.700;2023-12-14T01:54:16;43.10;;;20.70;;
12554;SDS011;6343;50.868;4.700;2023-12-14T01:56:42;43.43;;;19.27;;
12554;SDS011;6343;50.868;4.700;2023-12-14T01:59:08;40.33;;;20.03;;
12554;SDS011;6343;50.868;4.700;2023-12-14T02:04:00;33.57;;;16.67;;
12554;SDS011;6343;50.868;4.700;2023-12-14T02:06:27;38.47;;;16.87;;
12554;SDS011;6343;50.868;4.700;2023-12-14T02:08:53;32.97;;;18.13;;
12554;SDS011;6343;50.868;4.700;2023-12-14T02:11:19;34.53;;;17.30;;
12554;SDS011;6343;50.868;4.700;2023-12-14T02:13:45;28.73;;;15.97;;
12554;SDS011;6343;50.868;4.700;2023-12-14T02:16:11;33.83;;;16.63;;
12554;SDS011;6343;50.868;4.700;2023-12-14T02:18:37;35.87;;;16.40;;
12554;SDS011;6343;50.868;4.700;2023-12-14T02:21:03;30.67;;;15.00;;
12554;SDS011;6343;50.868;4.700;2023-12-14T02:23:30;33.10;;;15.50;;
12554;SDS011;6343;50.868;4.700;2023-12-14T02:25:56;27.30;;;14.50;;
12554;SDS011;6343;50.868;4.700;2023-12-14T02:28:22;30.07;;;13.27;;
12554;SDS011;6343;50.868;4.700;2023-12-14T02:30:48;25.30;;;13.83;;
12554;SDS011;6343;50.868;4.700;2023-12-14T02:33:14;24.80;;;13.03;;
12554;SDS011;6343;50.868;4.700;2023-12-14T02:35:40;25.63;;;12.73;;
12554;SDS011;6343;50.868;4.700;2023-12-14T02:38:06;24.67;;;13.50;;
12554;SDS011;6343;50.868;4.700;2023-12-14T02:40:32;23.33;;;12.03;;
12554;SDS011;6343;50.868;4.700;2023-12-14T02:42:58;22.57;;;11.87;;
12554;SDS011;6343;50.868;4.700;2023-12-14T02:45:24;22.07;;;11.10;;
12554;SDS011;6343;50.868;4.700;2023-12-14T02:47:51;24.57;;;12.17;;
12554;SDS011;6343;50.868;4.700;2023-12-14T02:50:19;22.57;;;11.70;;
12554;SDS011;6343;50.868;4.700;2023-12-14T02:52:45;25.73;;;13.63;;
12554;SDS011;6343;50.868;4.700;2023-12-14T02:55:11;24.40;;;12.83;;
12554;SDS011;6343;50.868;4.700;2023-12-14T02:57:37;24.73;;;12.70;;
12554;SDS011;6343;50.868;4.700;2023-12-14T03:00:03;28.27;;;13.50;;
12554;SDS011;6343;50.868;4.700;2023-12-14T03:02:29;27.47;;;13.27;;
12554;SDS011;6343;50.868;4.700;2023-12-14T03:04:55;24.67;;;12.40;;
12554;SDS011;6343;50.868;4.700;2023-12-14T03:07:21;23.57;;;12.13;;
12554;SDS011;6343;50.868;4.700;2023-12-14T03:09:47;23.30;;;11.87;;
12554;SDS011;6343;50.868;4.700;2023-12-14T03:12:13;21.00;;;11.70;;
12554;SDS011;6343;50.868;4.700;2023-12-14T03:14:40;22.83;;;11.63;;
12554;SDS011;6343;50.868;4.700;2023-12-14T03:17:06;22.73;;;12.20;;
12554;SDS011;6343;50.868;4.700;2023-12-14T03:19:37;21.60;;;11.83;;
12554;SDS011;6343;50.868;4.700;2023-12-14T03:22:03;20.77;;;11.60;;
12554;SDS011;6343;50.868;4.700;2023-12-14T03:24:30;18.90;;;10.27;;
12554;SDS011;6343;50.868;4.700;2023-12-14T03:26:56;28.07;;;12.37;;
12554;SDS011;6343;50.868;4.700;2023-12-14T03:29:22;20.17;;;11.37;;
12554;SDS011;6343;50.868;4.700;2023-12-14T03:31:48;21.93;;;11.30;;
12554;SDS011;6343;50.868;4.700;2023-12-14T03:34:14;20.83;;;11.70;;
12554;SDS011;6343;50.868;4.700;2023-12-14T03:36:40;21.43;;;11.30;;
12554;SDS011;6343;50.868;4.700;2023-12-14T03:39:06;18.97;;;10.63;;
12554;SDS011;6343;50.868;4.700;2023-12-14T03:41:32;22.83;;;11.10;;
12554;SDS011;6343;50.868;4.700;2023-12-14T03:43:58;21.43;;;10.53;;
12554;SDS011;6343;50.868;4.700;2023-12-14T03:46:24;21.63;;;10.90;;
12554;SDS011;6343;50.868;4.700;2023-12-14T03:48:50;22.67;;;11.23;;
12554;SDS011;6343;50.868;4.700;2023-12-14T03:51:20;17.90;;;10.23;;
12554;SDS011;6343;50.868;4.700;2023-12-14T03:53:46;17.07;;;9.57;;
12554;SDS011;6343;50.868;4.700;2023-12-14T03:56:12;17.87;;;10.20;;
12554;SDS011;6343;50.868;4.700;2023-12-14T03:58:38;17.70;;;9.07;;
12554;SDS011;6343;50.868;4.700;2023-12-14T04:01:04;16.47;;;9.37;;
12554;SDS011;6343;50.868;4.700;2023-12-14T04:03:30;15.37;;;10.30;;
12554;SDS011;6343;50.868;4.700;2023-12-14T04:05:57;20.70;;;10.83;;
12554;SDS011;6343;50.868;4.700;2023-12-14T04:08:23;20.73;;;10.67;;
12554;SDS011;6343;50.868;4.700;2023-12-14T04:10:49;18.17;;;10.83;;
12554;SDS011;6343;50.868;4.700;2023-12-14T04:13:15;20.00;;;11.20;;
12554;SDS011;6343;50.868;4.700;2023-12-14T04:15:42;17.77;;;10.13;;
12554;SDS011;6343;50.868;4.700;2023-12-14T04:18:08;15.17;;;9.77;;
12554;SDS011;6343;50.868;4.700;2023-12-14T04:20:34;15.10;;;8.83;;
12554;SDS011;6343;50.868;4.700;2023-12-14T04:23:00;16.57;;;9.20;;
12554;SDS011;6343;50.868;4.700;2023-12-14T04:25:26;10.77;;;6.97;;
12554;SDS011;6343;50.868;4.700;2023-12-14T04:27:52;12.27;;;7.23;;
12554;SDS011;6343;50.868;4.700;2023-12-14T04:30:18;12.97;;;7.20;;
12554;SDS011;6343;50.868;4.700;2023-12-14T04:32:45;10.70;;;6.73;;
12554;SDS011;6343;50.868;4.700;2023-12-14T04:35:12;11.90;;;7.27;;
12554;SDS011;6343;50.868;4.700;2023-12-14T04:37:38;11.73;;;7.13;;
12554;SDS011;6343;50.868;4.700;2023-12-14T04:40:05;12.40;;;7.53;;
12554;SDS011;6343;50.868;4.700;2023-12-14T04:42:31;15.43;;;8.67;;
12554;SDS011;6343;50.868;4.700;2023-12-14T04:44:57;14.53;;;8.80;;
12554;SDS011;6343;50.868;4.700;2023-12-14T04:47:23;14.07;;;9.63;;
12554;SDS011;6343;50.868;4.700;2023-12-14T04:49:49;13.33;;;8.57;;
12554;SDS011;6343;50.868;4.700;2023-12-14T04:52:15;16.87;;;8.83;;
12554;SDS011;6343;50.868;4.700;2023-12-14T04:54:41;13.00;;;8.93;;
12554;SDS011;6343;50.868;4.700;2023-12-14T04:57:07;13.73;;;9.43;;
12554;SDS011;6343;50.868;4.700;2023-12-14T04:59:34;13.77;;;9.97;;
12554;SDS011;6343;50.868;4.700;2023-12-14T05:02:00;15.77;;;9.50;;
12554;SDS011;6343;50.868;4.700;2023-12-14T05:04:26;13.13;;;8.73;;
12554;SDS011;6343;50.868;4.700;2023-12-14T05:06:52;15.93;;;9.67;;
12554;SDS011;6343;50.868;4.700;2023-12-14T05:09:18;14.77;;;9.70;;
12554;SDS011;6343;50.868;4.700;2023-12-14T05:11:44;14.63;;;10.20;;
12554;SDS011;6343;50.868;4.700;2023-12-14T05:14:10;14.07;;;9.30;;
12554;SDS011;6343;50.868;4.700;2023-12-14T05:16:36;15.60;;;9.40;;
12554;SDS011;6343;50.868;4.700;2023-12-14T05:19:02;13.83;;;9.80;;
12554;SDS011;6343;50.868;4.700;2023-12-14T05:21:28;17.57;;;9.60;;
12554;SDS011;6343;50.868;4.700;2023-12-14T05:23:54;14.10;;;9.43;;
12554;SDS011;6343;50.868;4.700;2023-12-14T05:26:21;14.57;;;9.27;;
12554;SDS011;6343;50.868;4.700;2023-12-14T05:28:47;16.10;;;10.37;;
12554;SDS011;6343;50.868;4.700;2023-12-14T05:31:13;14.33;;;9.93;;
12554;SDS011;6343;50.868;4.700;2023-12-14T05:33:39;14.30;;;9.57;;
12554;SDS011;6343;50.868;4.700;2023-12-14T05:36:05;13.87;;;10.13;;
12554;SDS011;6343;50.868;4.700;2023-12-14T05:38:35;15.73;;;10.70;;
12554;SDS011;6343;50.868;4.700;2023-12-14T05:41:01;15.97;;;10.70;;
12554;SDS011;6343;50.868;4.700;2023-12-14T05:43:27;12.97;;;9.43;;
12554;SDS011;6343;50.868;4.700;2023-12-14T05:45:53;14.67;;;10.53;;
12554;SDS011;6343;50.868;4.700;2023-12-14T05:48:19;17.77;;;9.80;;
12554;SDS011;6343;50.868;4.700;2023-12-14T05:50:45;17.17;;;10.40;;
12554;SDS011;6343;50.868;4.700;2023-12-14T05:53:12;14.07;;;9.87;;
12554;SDS011;6343;50.868;4.700;2023-12-14T05:55:38;16.53;;;10.20;;
12554;SDS011;6343;50.868;4.700;2023-12-14T05:58:06;14.47;;;10.40;;
12554;SDS011;6343;50.868;4.700;2023-12-14T06:00:32;18.33;;;10.17;;
12554;SDS011;6343;50.868;4.700;2023-12-14T06:03:00;13.73;;;9.73;;
12554;SDS011;6343;50.868;4.700;2023-12-14T06:05:26;14.77;;;10.40;;
12554;SDS011;6343;50.868;4.700;2023-12-14T06:07:53;14.37;;;10.33;;
12554;SDS011;6343;50.868;4.700;2023-12-14T06:10:19;15.87;;;10.77;;
12554;SDS011;6343;50.868;4.700;2023-12-14T06:12:45;17.00;;;10.50;;
12554;SDS011;6343;50.868;4.700;2023-12-14T06:15:11;13.40;;;10.53;;
12554;SDS011;6343;50.868;4.700;2023-12-14T06:17:37;16.40;;;9.90;;
12554;SDS011;6343;50.868;4.700;2023-12-14T06:20:04;21.87;;;10.70;;
12554;SDS011;6343;50.868;4.700;2023-12-14T06:22:33;18.33;;;11.20;;
12554;SDS011;6343;50.868;4.700;2023-12-14T06:24:59;16.03;;;11.07;;
12554;SDS011;6343;50.868;4.700;2023-12-14T06:27:26;15.70;;;10.93;;
12554;SDS011;6343;50.868;4.700;2023-12-14T06:29:52;15.23;;;9.70;;
12554;SDS011;6343;50.868;4.700;2023-12-14T06:32:18;17.20;;;11.10;;
12554;SDS011;6343;50.868;4.700;2023-12-14T06:34:44;13.50;;;9.20;;
12554;SDS011;6343;50.868;4.700;2023-12-14T06:37:11;14.93;;;9.97;;
12554;SDS011;6343;50.868;4.700;2023-12-14T06:39:37;15.97;;;10.60;;
12554;SDS011;6343;50.868;4.700;2023-12-14T06:42:03;15.87;;;10.23;;
12554;SDS011;6343;50.868;4.700;2023-12-14T06:44:29;15.50;;;10.77;;
12554;SDS011;6343;50.868;4.700;2023-12-14T06:46:56;14.57;;;10.30;;
12554;SDS011;6343;50.868;4.700;2023-12-14T06:49:23;15.23;;;9.80;;
12554;SDS011;6343;50.868;4.700;2023-12-14T06:51:49;16.10;;;10.93;;
12554;SDS011;6343;50.868;4.700;2023-12-14T06:54:15;15.47;;;10.73;;
12554;SDS011;6343;50.868;4.700;2023-12-14T06:56:41;16.97;;;10.60;;
12554;SDS011;6343;50.868;4.700;2023-12-14T06:59:08;16.23;;;10.80;;
12554;SDS011;6343;50.868;4.700;2023-12-14T07:01:34;15.63;;;9.93;;
12554;SDS011;6343;50.868;4.700;2023-12-14T07:04:00;15.03;;;10.10;;
12554;SDS011;6343;50.868;4.700;2023-12-14T07:06:28;16.10;;;10.83;;
12554;SDS011;6343;50.868;4.700;2023-12-14T07:08:54;14.17;;;9.43;;
12554;SDS011;6343;50.868;4.700;2023-12-14T07:11:20;16.47;;;10.63;;
12554;SDS011;6343;50.868;4.700;2023-12-14T07:13:46;15.27;;;10.27;;
12554;SDS011;6343;50.868;4.700;2023-12-14T07:16:13;22.40;;;11.73;;
12554;SDS011;6343;50.868;4.700;2023-12-14T07:18:40;16.77;;;11.60;;
12554;SDS011;6343;50.868;4.700;2023-12-14T07:21:07;16.10;;;10.80;;
12554;SDS011;6343;50.868;4.700;2023-12-14T07:23:33;15.83;;;10.13;;
12554;SDS011;6343;50.868;4.700;2023-12-14T07:26:00;16.30;;;10.53;;
12554;SDS011;6343;50.868;4.700;2023-12-14T07:28:26;13.13;;;10.20;;
12554;SDS011;6343;50.868;4.700;2023-12-14T07:30:52;14.80;;;10.60;;
12554;SDS011;6343;50.868;4.700;2023-12-14T07:33:18;16.27;;;10.60;;
12554;SDS011;6343;50.868;4.700;2023-12-14T07:35:44;15.40;;;10.47;;
12554;SDS011;6343;50.868;4.700;2023-12-14T07:38:11;17.40;;;10.97;;
12554;SDS011;6343;50.868;4.700;2023-12-14T07:40:37;19.00;;;10.70;;
12554;SDS011;6343;50.868;4.700;2023-12-14T07:43:06;16.37;;;11.10;;
12554;SDS011;6343;50.868;4.700;2023-12-14T07:45:33;18.80;;;10.87;;
12554;SDS011;6343;50.868;4.700;2023-12-14T07:47:59;19.67;;;10.67;;
12554;SDS011;6343;50.868;4.700;2023-12-14T07:50:25;15.83;;;10.67;;
12554;SDS011;6343;50.868;4.700;2023-12-14T07:52:51;18.10;;;11.53;;
12554;SDS011;6343;50.868;4.700;2023-12-14T07:55:18;20.57;;;11.23;;
12554;SDS011;6343;50.868;4.700;2023-12-14T07:57:44;20.40;;;11.67;;
12554;SDS011;6343;50.868;4.700;2023-12-14T08:00:10;21.73;;;11.70;;
12554;SDS011;6343;50.868;4.700;2023-12-14T08:02:37;16.90;;;10.57;;
12554;SDS011;6343;50.868;4.700;2023-12-14T08:05:03;17.57;;;11.67;;
12554;SDS011;6343;50.868;4.700;2023-12-14T08:07:30;16.70;;;11.53;;
12554;SDS011;6343;50.868;4.700;2023-12-14T08:09:56;17.73;;;10.93;;
12554;SDS011;6343;50.868;4.700;2023-12-14T08:12:22;16.80;;;10.60;;
12554;SDS011;6343;50.868;4.700;2023-12-14T08:14:49;23.63;;;11.40;;
12554;SDS011;6343;50.868;4.700;2023-12-14T08:17:15;19.87;;;10.70;;
12554;SDS011;6343;50.868;4.700;2023-12-14T08:19:41;17.67;;;10.90;;
12554;SDS011;6343;50.868;4.700;2023-12-14T08:22:08;13.90;;;9.83;;
12554;SDS011;6343;50.868;4.700;2023-12-14T08:24:36;19.67;;;11.00;;
12554;SDS011;6343;50.868;4.700;2023-12-14T08:27:02;17.20;;;9.73;;
12554;SDS011;6343;50.868;4.700;2023-12-14T08:29:28;15.70;;;9.80;;
12554;SDS011;6343;50.868;4.700;2023-12-14T08:31:54;16.30;;;9.73;;
12554;SDS011;6343;50.868;4.700;2023-12-14T08:34:25;16.23;;;9.30;;
12554;SDS011;6343;50.868;4.700;2023-12-14T08:36:52;14.33;;;9.10;;
12554;SDS011;6343;50.868;4.700;2023-12-14T08:39:18;15.23;;;9.60;;
12554;SDS011;6343;50.868;4.700;2023-12-14T08:41:47;18.10;;;9.67;;
12554;SDS011;6343;50.868;4.700;2023-12-14T08:44:17;18.67;;;9.97;;
12554;SDS011;6343;50.868;4.700;2023-12-14T08:46:44;16.47;;;9.10;;
12554;SDS011;6343;50.868;4.700;2023-12-14T08:49:11;21.70;;;9.13;;
12554;SDS011;6343;50.868;4.700;2023-12-14T08:51:37;13.87;;;8.93;;
12554;SDS011;6343;50.868;4.700;2023-12-14T08:54:03;15.40;;;8.63;;
12554;SDS011;6343;50.868;4.700;2023-12-14T08:56:29;15.13;;;9.00;;
12554;SDS011;6343;50.868;4.700;2023-12-14T08:58:56;15.70;;;8.83;;
12554;SDS011;6343;50.868;4.700;2023-12-14T09:01:24;11.30;;;7.40;;
12554;SDS011;6343;50.868;4.700;2023-12-14T09:03:50;12.20;;;7.93;;
12554;SDS011;6343;50.868;4.700;2023-12-14T09:06:16;15.13;;;9.47;;
12554;SDS011;6343;50.868;4.700;2023-12-14T09:08:43;18.93;;;8.33;;
12554;SDS011;6343;50.868;4.700;2023-12-14T09:11:10;12.00;;;7.93;;
12554;SDS011;6343;50.868;4.700;2023-12-14T09:13:36;17.17;;;8.33;;
12554;SDS011;6343;50.868;4.700;2023-12-14T09:16:02;17.43;;;8.30;;
12554;SDS011;6343;50.868;4.700;2023-12-14T09:18:28;23.80;;;8.10;;
12554;SDS011;6343;50.868;4.700;2023-12-14T09:20:54;10.40;;;7.03;;
12554;SDS011;6343;50.868;4.700;2023-12-14T09:23:20;15.40;;;7.07;;
12554;SDS011;6343;50.868;4.700;2023-12-14T09:25:46;14.40;;;7.80;;
12554;SDS011;6343;50.868;4.700;2023-12-14T09:28:12;11.70;;;7.87;;
12554;SDS011;6343;50.868;4.700;2023-12-14T09:30:38;10.57;;;7.13;;
12554;SDS011;6343;50.868;4.700;2023-12-14T09:33:05;12.63;;;7.97;;
12554;SDS011;6343;50.868;4.700;2023-12-14T09:35:33;10.83;;;6.83;;
12554;SDS011;6343;50.868;4.700;2023-12-14T09:38:01;11.53;;;7.03;;
12554;SDS011;6343;50.868;4.700;2023-12-14T09:40:27;10.63;;;6.80;;
12554;SDS011;6343;50.868;4.700;2023-12-14T09:42:53;10.73;;;6.77;;
12554;SDS011;6343;50.868;4.700;2023-12-14T09:45:20;13.93;;;8.13;;
12554;SDS011;6343;50.868;4.700;2023-12-14T09:47:48;8.97;;;6.20;;
12554;SDS011;6343;50.868;4.700;2023-12-14T09:50:14;12.30;;;5.90;;
12554;SDS011;6343;50.868;4.700;2023-12-14T09:52:43;10.47;;;5.97;;
12554;SDS011;6343;50.868;4.700;2023-12-14T09:55:11;13.37;;;6.77;;
12554;SDS011;6343;50.868;4.700;2023-12-14T09:57:38;13.67;;;6.10;;
12554;SDS011;6343;50.868;4.700;2023-12-14T10:00:04;12.47;;;6.47;;
12554;SDS011;6343;50.868;4.700;2023-12-14T10:02:35;8.60;;;6.17;;
12554;SDS011;6343;50.868;4.700;2023-12-14T10:05:01;9.50;;;6.40;;
12554;SDS011;6343;50.868;4.700;2023-12-14T10:07:27;8.87;;;5.57;;
12554;SDS011;6343;50.868;4.700;2023-12-14T10:09:53;12.57;;;5.57;;
12554;SDS011;6343;50.868;4.700;2023-12-14T10:12:20;13.83;;;5.50;;
12554;SDS011;6343;50.868;4.700;2023-12-14T10:14:48;9.33;;;5.30;;
12554;SDS011;6343;50.868;4.700;2023-12-14T10:17:25;18.83;;;5.57;;
12554;SDS011;6343;50.868;4.700;2023-12-14T10:19:57;9.43;;;4.97;;
12554;SDS011;6343;50.868;4.700;2023-12-14T10:22:25;7.53;;;5.03;;
12554;SDS011;6343;50.868;4.700;2023-12-14T10:24:54;8.17;;;5.00;;
12554;SDS011;6343;50.868;4.700;2023-12-14T10:27:20;7.10;;;4.60;;
12554;SDS011;6343;50.868;4.700;2023-12-14T10:29:46;8.60;;;5.03;;
12554;SDS011;6343;50.868;4.700;2023-12-14T10:32:12;8.17;;;5.33;;
12554;SDS011;6343;50.868;4.700;2023-12-14T10:34:39;13.03;;;5.50;;
12554;SDS011;6343;50.868;4.700;2023-12-14T10:37:06;11.67;;;5.93;;
12554;SDS011;6343;50.868;4.700;2023-12-14T10:39:33;13.37;;;6.00;;
12554;SDS011;6343;50.868;4.700;2023-12-14T10:42:01;8.80;;;6.20;;
12554;SDS011;6343;50.868;4.700;2023-12-14T10:44:28;11.53;;;5.63;;
12554;SDS011;6343;50.868;4.700;2023-12-14T10:46:56;9.60;;;6.30;;
12554;SDS011;6343;50.868;4.700;2023-12-14T10:49:24;12.90;;;6.73;;
12554;SDS011;6343;50.868;4.700;2023-12-14T10:51:51;10.23;;;6.13;;
12554;SDS011;6343;50.868;4.700;2023-12-14T10:54:19;11.57;;;6.30;;
12554;SDS011;6343;50.868;4.700;2023-12-14T10:56:46;14.60;;;6.33;;
12554;SDS011;6343;50.868;4.700;2023-12-14T10:59:12;13.23;;;6.50;;
12554;SDS011;6343;50.868;4.700;2023-12-14T11:01:41;10.83;;;6.27;;
12554;SDS011;6343;50.868;4.700;2023-12-14T11:04:07;11.43;;;6.20;;
12554;SDS011;6343;50.868;4.700;2023-12-14T11:06:38;12.63;;;5.60;;
12554;SDS011;6343;50.868;4.700;2023-12-14T11:09:06;11.00;;;5.70;;
12554;SDS011;6343;50.868;4.700;2023-12-14T11:11:42;14.67;;;6.20;;
12554;SDS011;6343;50.868;4.700;2023-12-14T11:14:11;14.93;;;6.23;;
12554;SDS011;6343;50.868;4.700;2023-12-14T11:16:38;10.27;;;6.70;;
12554;SDS011;6343;50.868;4.700;2023-12-14T11:24:22;15.60;;;6.63;;
12554;SDS011;6343;50.868;4.700;2023-12-14T11:26:51;12.20;;;6.53;;
12554;SDS011;6343;50.868;4.700;2023-12-14T11:29:18;13.43;;;6.90;;
12554;SDS011;6343;50.868;4.700;2023-12-14T11:31:45;10.50;;;6.93;;
12554;SDS011;6343;50.868;4.700;2023-12-14T11:34:11;10.80;;;5.77;;
12554;SDS011;6343;50.868;4.700;2023-12-14T11:36:37;16.13;;;6.80;;
12554;SDS011;6343;50.868;4.700;2023-12-14T11:39:09;9.63;;;5.77;;
12554;SDS011;6343;50.868;4.700;2023-12-14T11:41:36;10.97;;;6.07;;
12554;SDS011;6343;50.868;4.700;2023-12-14T11:44:04;8.80;;;5.87;;
12554;SDS011;6343;50.868;4.700;2023-12-14T11:46:30;15.37;;;6.07;;
12554;SDS011;6343;50.868;4.700;2023-12-14T11:48:57;8.73;;;4.47;;
12554;SDS011;6343;50.868;4.700;2023-12-14T11:51:23;10.57;;;4.80;;
12554;SDS011;6343;50.868;4.700;2023-12-14T11:53:55;9.80;;;4.67;;
12554;SDS011;6343;50.868;4.700;2023-12-14T11:56:21;15.20;;;4.67;;
12554;SDS011;6343;50.868;4.700;2023-12-14T11:58:50;13.97;;;4.67;;
12554;SDS011;6343;50.868;4.700;2023-12-14T12:01:18;9.33;;;4.10;;
12554;SDS011;6343;50.868;4.700;2023-12-14T12:03:46;10.77;;;4.77;;
12554;SDS011;6343;50.868;4.700;2023-12-14T12:06:19;10.63;;;4.87;;
12554;SDS011;6343;50.868;4.700;2023-12-14T12:08:46;8.60;;;4.00;;
12554;SDS011;6343;50.868;4.700;2023-12-14T12:11:16;13.67;;;5.00;;
12554;SDS011;6343;50.868;4.700;2023-12-14T12:13:42;9.73;;;5.07;;
12554;SDS011;6343;50.868;4.700;2023-12-14T12:16:08;12.87;;;5.17;;
12554;SDS011;6343;50.868;4.700;2023-12-14T12:18:34;8.73;;;4.83;;
12554;SDS011;6343;50.868;4.700;2023-12-14T12:21:00;12.30;;;5.63;;
12554;SDS011;6343;50.868;4.700;2023-12-14T12:23:30;15.70;;;5.13;;
12554;SDS011;6343;50.868;4.700;2023-12-14T12:25:56;8.93;;;5.00;;
12554;SDS011;6343;50.868;4.700;2023-12-14T12:28:22;8.73;;;5.57;;
12554;SDS011;6343;50.868;4.700;2023-12-14T12:30:48;34.90;;;6.67;;
12554;SDS011;6343;50.868;4.700;2023-12-14T12:33:14;12.07;;;4.60;;
12554;SDS011;6343;50.868;4.700;2023-12-14T12:35:40;10.07;;;4.23;;
12554;SDS011;6343;50.868;4.700;2023-12-14T12:38:06;25.40;;;5.30;;
12554;SDS011;6343;50.868;4.700;2023-12-14T12:40:32;7.10;;;4.27;;
12554;SDS011;6343;50.868;4.700;2023-12-14T12:42:58;8.50;;;4.27;;
12554;SDS011;6343;50.868;4.700;2023-12-14T12:45:25;9.80;;;4.43;;
12554;SDS011;6343;50.868;4.700;2023-12-14T12:47:52;9.23;;;4.83;;
12554;SDS011;6343;50.868;4.700;2023-12-14T12:50:19;13.40;;;4.67;;
12554;SDS011;6343;50.868;4.700;2023-12-14T12:52:45;15.77;;;4.60;;
12554;SDS011;6343;50.868;4.700;2023-12-14T12:55:14;8.03;;;4.50;;
12554;SDS011;6343;50.868;4.700;2023-12-14T12:57:40;12.33;;;5.13;;
12554;SDS011;6343;50.868;4.700;2023-12-14T13:00:07;19.77;;;4.57;;
12554;SDS011;6343;50.868;4.700;2023-12-14T13:02:37;9.03;;;4.00;;
12554;SDS011;6343;50.868;4.700;2023-12-14T13:05:04;7.20;;;3.93;;
12554;SDS011;6343;50.868;4.700;2023-12-14T13:07:31;7.23;;;4.03;;
12554;SDS011;6343;50.868;4.700;2023-12-14T13:09:57;7.03;;;3.90;;
12554;SDS011;6343;50.868;4.700;2023-12-14T13:12:23;10.33;;;3.83;;
12554;SDS011;6343;50.868;4.700;2023-12-14T13:14:49;11.77;;;4.77;;
12554;SDS011;6343;50.868;4.700;2023-12-14T13:17:15;8.47;;;3.50;;
12554;SDS011;6343;50.868;4.700;2023-12-14T13:19:43;6.97;;;3.40;;
12554;SDS011;6343;50.868;4.700;2023-12-14T13:22:09;7.03;;;4.33;;
12554;SDS011;6343;50.868;4.700;2023-12-14T13:24:38;8.87;;;4.13;;
12554;SDS011;6343;50.868;4.700;2023-12-14T13:27:04;12.30;;;4.10;;
12554;SDS011;6343;50.868;4.700;2023-12-14T13:29:31;10.83;;;4.50;;
12554;SDS011;6343;50.868;4.700;2023-12-14T13:31:59;11.80;;;4.90;;
12554;SDS011;6343;50.868;4.700;2023-12-14T13:34:26;12.63;;;4.43;;
12554;SDS011;6343;50.868;4.700;2023-12-14T13:36:53;6.20;;;4.07;;
12554;SDS011;6343;50.868;4.700;2023-12-14T13:39:19;10.37;;;4.13;;
12554;SDS011;6343;50.868;4.700;2023-12-14T13:41:45;10.87;;;4.50;;
12554;SDS011;6343;50.868;4.700;2023-12-14T13:44:12;10.27;;;4.53;;
12554;SDS011;6343;50.868;4.700;2023-12-14T13:46:38;8.90;;;4.30;;
12554;SDS011;6343;50.868;4.700;2023-12-14T13:50:25;9.00;;;3.90;;
12554;SDS011;6343;50.868;4.700;2023-12-14T13:52:52;15.87;;;5.60;;
12554;SDS011;6343;50.868;4.700;2023-12-14T13:55:18;11.43;;;4.70;;
12554;SDS011;6343;50.868;4.700;2023-12-14T13:57:45;11.37;;;4.47;;
12554;SDS011;6343;50.868;4.700;2023-12-14T14:00:12;13.63;;;4.63;;
12554;SDS011;6343;50.868;4.700;2023-12-14T14:02:39;9.20;;;4.80;;
12554;SDS011;6343;50.868;4.700;2023-12-14T14:05:05;10.77;;;4.93;;
12554;SDS011;6343;50.868;4.700;2023-12-14T14:07:31;15.03;;;4.53;;
12554;SDS011;6343;50.868;4.700;2023-12-14T14:09:57;8.43;;;4.60;;
12554;SDS011;6343;50.868;4.700;2023-12-14T14:12:23;9.53;;;4.43;;
12554;SDS011;6343;50.868;4.700;2023-12-14T14:14:49;9.87;;;4.67;;
12554;SDS011;6343;50.868;4.700;2023-12-14T14:17:15;11.37;;;5.50;;
12554;SDS011;6343;50.868;4.700;2023-12-14T14:19:42;11.53;;;4.80;;
12554;SDS011;6343;50.868;4.700;2023-12-14T14:22:08;10.73;;;4.90;;
12554;SDS011;6343;50.868;4.700;2023-12-14T14:24:34;10.13;;;4.27;;
12554;SDS011;6343;50.868;4.700;2023-12-14T14:27:00;11.77;;;5.47;;
12554;SDS011;6343;50.868;4.700;2023-12-14T14:29:26;9.70;;;4.63;;
12554;SDS011;6343;50.868;4.700;2023-12-14T14:31:53;9.73;;;4.47;;
12554;SDS011;6343;50.868;4.700;2023-12-14T14:34:19;9.67;;;5.20;;
12554;SDS011;6343;50.868;4.700;2023-12-14T14:36:47;10.20;;;5.00;;
12554;SDS011;6343;50.868;4.700;2023-12-14T14:39:13;7.80;;;4.67;;
12554;SDS011;6343;50.868;4.700;2023-12-14T14:41:42;9.37;;;5.20;;
12554;SDS011;6343;50.868;4.700;2023-12-14T14:44:08;14.80;;;5.83;;
12554;SDS011;6343;50.868;4.700;2023-12-14T14:46:34;11.27;;;5.20;;
12554;SDS011;6343;50.868;4.700;2023-12-14T14:49:00;8.50;;;6.20;;